Time;durP1;ratioP1;P1;durP2;ratioP2;P2;SDS_P1;SDS_P2;PMS_P1;PMS_P2;Temp;Humidity;BMP_temperature;BMP_pressure;BME280_temperature;BME280_humidity;BME280_pressure;Samples;Min_cycle;Max_cycle;Signal;HPM_P1;HPM_P2
2024/01/11 00:00:35;;;;;;;50.78;30.15;;;-2.20;38.10;;;;;;5053070;28;20385;-72
2024/01/11 00:03:00;;;;;;;49.25;30.83;;;-2.20;38.10;;;;;;5035146;28;20401;-72
2024/01/11 00:05:26;;;;;;;52.10;29.73;;;-2.20;37.90;;;;;;5053238;28;20389;-73
2024/01/11 00:07:51;;;;;;;54.13;31.27;;;-2.40;38.60;;;;;;5053270;28;20390;-72
2024/01/11 00:10:17;;;;;;;49.55;29.30;;;-2.50;39.50;;;;;;5035745;28;20385;-73
2024/01/11 00:12:42;;;;;;;51.30;30.43;;;-2.40;38.90;;;;;;5054059;28;20493;-73
2024/01/11 00:15:08;;;;;;;56.40;31.30;;;-2.50;39.40;;;;;;5035975;28;20394;-73
2024/01/11 00:17:34;;;;;;;49.47;31.27;;;-2.50;39.20;;;;;;5035774;28;20404;-72
2024/01/11 00:20:00;;;;;;;48.97;30.43;;;-2.60;39.30;;;;;;5052464;28;20943;-72
2024/01/11 00:22:26;;;;;;;56.35;31.60;;;-2.60;39.30;;;;;;5051556;28;20762;-73
2024/01/11 00:24:51;;;;;;;52.60;31.60;;;-2.60;39.70;;;;;;5051800;28;20519;-73
2024/01/11 00:27:17;;;;;;;55.50;31.95;;;-2.60;39.50;;;;;;5051717;28;20377;-71
2024/01/11 00:29:42;;;;;;;53.00;31.37;;;-2.50;39.50;;;;;;5051748;28;20429;-71
2024/01/11 00:32:08;;;;;;;53.60;31.33;;;-2.50;39.60;;;;;;5050950;28;20432;-71
2024/01/11 00:34:35;;;;;;;52.93;31.40;;;-2.30;39.10;;;;;;5051524;28;20385;-72
2024/01/11 00:37:01;;;;;;;55.73;31.13;;;-2.30;38.60;;;;;;5050828;28;20783;-72
2024/01/11 00:39:26;;;;;;;53.20;31.55;;;-2.20;38.30;;;;;;5050859;28;20381;-72
2024/01/11 00:41:52;;;;;;;50.20;30.23;;;-2.30;38.20;;;;;;5034740;28;20378;-73
2024/01/11 00:44:17;;;;;;;53.73;31.47;;;-2.30;38.70;;;;;;5051300;28;20468;-73
2024/01/11 00:46:43;;;;;;;51.03;30.70;;;-2.30;38.60;;;;;;5051674;28;20771;-72
2024/01/11 00:49:08;;;;;;;51.85;31.65;;;-2.40;39.10;;;;;;5051520;28;20820;-72
2024/01/11 00:51:34;;;;;;;53.47;32.70;;;-2.60;39.70;;;;;;5054573;28;20475;-72
2024/01/11 00:53:59;;;;;;;57.53;33.00;;;-2.90;40.50;;;;;;5051809;28;20472;-71
2024/01/11 00:56:26;;;;;;;54.05;32.05;;;-3.10;41.60;;;;;;5051210;28;20814;-72
2024/01/11 00:58:52;;;;;;;60.83;34.27;;;-3.20;42.50;;;;;;5050640;28;21009;-72
2024/01/11 01:01:18;;;;;;;52.70;32.15;;;-3.30;43.50;;;;;;5051403;28;20388;-71
2024/01/11 01:03:43;;;;;;;58.47;36.28;;;-3.40;44.30;;;;;;5051131;28;20382;-71
2024/01/11 01:06:09;;;;;;;57.50;32.90;;;-3.50;44.90;;;;;;5051361;28;20381;-72
2024/01/11 01:08:34;;;;;;;53.17;32.63;;;-3.50;45.50;;;;;;5050657;28;20385;-72
2024/01/11 01:11:00;;;;;;;57.28;34.05;;;-3.20;44.40;;;;;;5032714;28;20490;-72
2024/01/11 01:13:25;;;;;;;59.00;32.07;;;-3.20;44.00;;;;;;5050612;28;20386;-71
2024/01/11 01:15:51;;;;;;;59.30;34.40;;;-3.30;44.30;;;;;;5032643;28;20514;-73
2024/01/11 01:18:16;;;;;;;54.38;32.85;;;-3.50;44.80;;;;;;5050337;28;20455;-71
2024/01/11 01:20:42;;;;;;;54.30;33.35;;;-3.60;45.30;;;;;;4985622;28;1843748;-73
2024/01/11 01:23:08;;;;;;;55.13;33.30;;;-3.70;46.20;;;;;;5050751;28;20492;-71
2024/01/11 01:25:33;;;;;;;58.30;34.67;;;-3.40;45.60;;;;;;5050631;28;20385;-70
2024/01/11 01:28:00;;;;;;;56.75;33.88;;;-3.50;45.20;;;;;;5050737;28;20385;-71
2024/01/11 01:30:26;;;;;;;57.67;33.77;;;-3.70;45.80;;;;;;5050746;28;20378;-72
2024/01/11 01:32:52;;;;;;;60.35;32.53;;;-3.70;46.40;;;;;;5032678;28;20447;-72
2024/01/11 01:35:17;;;;;;;60.67;33.70;;;-3.70;47.00;;;;;;5050620;28;20389;-72
2024/01/11 01:37:43;;;;;;;57.40;33.87;;;-3.60;46.50;;;;;;5050567;28;20408;-71
2024/01/11 01:40:09;;;;;;;57.97;33.43;;;-3.60;46.40;;;;;;5050709;28;20385;-72
2024/01/11 01:42:35;;;;;;;55.80;33.47;;;-3.60;45.90;;;;;;5050013;28;20963;-73
2024/01/11 01:45:00;;;;;;;62.63;34.93;;;-3.30;45.40;;;;;;5050100;28;20468;-71
2024/01/11 01:47:27;;;;;;;57.63;33.60;;;-3.40;45.10;;;;;;5050134;28;20460;-71
2024/01/11 01:49:55;;;;;;;54.58;33.20;;;-3.10;44.50;;;;;;5054590;28;20436;-73
2024/01/11 01:52:21;;;;;;;60.83;33.77;;;-2.90;42.70;;;;;;5055188;28;20458;-73
2024/01/11 01:54:49;;;;;;;57.03;34.28;;;-2.70;41.80;;;;;;5054890;28;20527;-73
2024/01/11 01:57:18;;;;;;;55.47;33.25;;;-2.60;41.10;;;;;;5054859;28;20496;-72
2024/01/11 01:59:45;;;;;;;56.33;33.10;;;-2.70;41.40;;;;;;5054584;28;20469;-71
2024/01/11 02:02:12;;;;;;;57.22;33.15;;;-2.70;41.20;;;;;;5054393;28;20415;-72
2024/01/11 02:04:37;;;;;;;56.78;33.50;;;-2.70;41.30;;;;;;5054654;28;20447;-71
2024/01/11 02:07:06;;;;;;;57.15;33.83;;;-3.20;42.00;;;;;;5054569;28;20906;-71
2024/01/11 02:09:32;;;;;;;56.50;34.15;;;-3.30;44.10;;;;;;5054266;28;20481;-72
2024/01/11 02:11:58;;;;;;;56.38;34.15;;;-3.30;44.40;;;;;;5054217;28;20468;-73
2024/01/11 02:14:24;;;;;;;57.28;34.30;;;-3.30;44.50;;;;;;5054359;28;20437;-71
2024/01/11 02:16:50;;;;;;;54.60;33.47;;;-3.40;43.80;;;;;;5054220;28;20953;-72
2024/01/11 02:19:19;;;;;;;58.40;36.03;;;-3.60;44.90;;;;;;5054585;28;20468;-72
2024/01/11 02:21:48;;;;;;;60.35;35.92;;;-3.70;46.00;;;;;;5083803;22;20461;-71
2024/01/11 02:24:13;;;;;;;61.38;34.53;;;-3.90;47.10;;;;;;5115580;28;20754;-72
2024/01/11 02:27:01;;;;;;;58.27;34.30;;;-3.90;48.10;;;;;;5115015;28;20376;-71
2024/01/11 02:29:28;;;;;;;62.30;34.65;;;-3.50;46.60;;;;;;5114611;28;20373;-71
2024/01/11 02:31:55;;;;;;;64.32;37.55;;;-3.20;45.20;;;;;;5115096;28;20376;-72
2024/01/11 02:34:21;;;;;;;57.65;34.15;;;-3.40;44.00;;;;;;5115566;28;20782;-73
2024/01/11 02:36:47;;;;;;;58.55;33.70;;;-3.40;45.70;;;;;;5117437;28;20443;-73
2024/01/11 02:39:15;;;;;;;64.75;36.38;;;-3.60;45.90;;;;;;5116417;28;20372;-72
2024/01/11 02:41:41;;;;;;;62.47;34.50;;;-3.30;45.70;;;;;;5117026;28;20381;-73
2024/01/11 02:44:07;;;;;;;66.97;36.42;;;-3.00;44.20;;;;;;5115912;28;20387;-72
2024/01/11 02:46:32;;;;;;;64.22;35.17;;;-2.90;43.30;;;;;;5115520;28;20740;-73
2024/01/11 02:48:58;;;;;;;59.15;35.33;;;-3.10;43.30;;;;;;5115627;28;20415;-72
2024/01/11 02:51:23;;;;;;;61.73;35.43;;;-3.20;44.10;;;;;;5097161;28;20380;-71
2024/01/11 02:53:49;;;;;;;63.53;36.00;;;-3.40;44.70;;;;;;5115455;28;20389;-72
2024/01/11 02:56:14;;;;;;;59.42;35.47;;;-3.30;45.50;;;;;;5116561;28;20534;-72
2024/01/11 02:58:40;;;;;;;65.37;34.90;;;-3.10;44.60;;;;;;5115200;28;20388;-73
2024/01/11 03:01:06;;;;;;;60.00;36.13;;;-3.10;44.00;;;;;;5097490;28;20376;-73
2024/01/11 03:03:31;;;;;;;63.08;36.65;;;-3.40;44.60;;;;;;5115395;28;20388;-73
2024/01/11 03:05:57;;;;;;;58.93;34.30;;;-3.60;45.70;;;;;;5114829;28;20376;-73
2024/01/11 03:08:22;;;;;;;62.60;36.53;;;-3.50;46.20;;;;;;5114210;28;20391;-73
2024/01/11 03:10:48;;;;;;;61.35;34.53;;;-3.70;45.90;;;;;;5114618;28;20379;-71
2024/01/11 03:13:13;;;;;;;66.60;40.00;;;-4.00;47.30;;;;;;5113456;28;20384;-71
2024/01/11 03:15:39;;;;;;;66.70;38.57;;;-4.20;48.90;;;;;;5113465;28;20415;-71
2024/01/11 03:18:04;;;;;;;61.63;35.42;;;-4.30;50.30;;;;;;5113188;28;20402;-74
2024/01/11 03:20:30;;;;;;;58.47;35.20;;;-4.20;51.00;;;;;;5114332;28;20866;-73
2024/01/11 03:22:56;;;;;;;58.83;35.10;;;-3.60;48.30;;;;;;5114428;28;20841;-72
2024/01/11 03:25:21;;;;;;;64.78;36.10;;;-3.80;47.10;;;;;;5114630;28;20404;-72
2024/01/11 03:27:47;;;;;;;59.00;36.13;;;-3.80;48.40;;;;;;5114418;28;20727;-73
2024/01/11 03:30:13;;;;;;;62.23;36.93;;;-3.50;46.90;;;;;;5115215;28;20392;-73
2024/01/11 03:32:38;;;;;;;60.33;36.33;;;-3.50;45.50;;;;;;5114314;28;20400;-72
2024/01/11 03:35:07;;;;;;;67.60;38.00;;;-3.50;46.20;;;;;;5113474;28;20429;-73
2024/01/11 03:37:32;;;;;;;59.85;35.47;;;-3.40;45.80;;;;;;5113668;28;20755;-73
2024/01/11 03:39:58;;;;;;;68.75;38.47;;;-3.40;46.60;;;;;;5114311;28;20434;-73
2024/01/11 03:42:24;;;;;;;65.23;37.87;;;-3.40;45.60;;;;;;5115565;28;20731;-72
2024/01/11 03:44:50;;;;;;;64.78;36.83;;;-3.40;45.20;;;;;;5115577;28;20721;-72
2024/01/11 03:47:15;;;;;;;63.42;38.13;;;-3.40;45.10;;;;;;5095741;28;20388;-74
2024/01/11 03:49:41;;;;;;;66.80;38.25;;;-3.40;45.30;;;;;;5113985;28;20902;-73
2024/01/11 03:52:06;;;;;;;67.50;38.07;;;-3.50;45.40;;;;;;5113604;28;20404;-73
2024/01/11 03:54:32;;;;;;;63.80;37.43;;;-3.50;45.80;;;;;;5114136;28;20395;-73
2024/01/11 03:56:57;;;;;;;68.68;37.60;;;-3.60;46.40;;;;;;5113620;28;20890;-73
2024/01/11 03:59:23;;;;;;;64.47;38.20;;;-3.80;47.10;;;;;;5113932;28;20376;-74
2024/01/11 04:01:48;;;;;;;67.07;38.97;;;-3.80;47.80;;;;;;5116706;28;20380;-73
2024/01/11 04:04:14;;;;;;;65.15;39.38;;;-4.20;49.00;;;;;;5117384;28;20387;-73
2024/01/11 04:06:39;;;;;;;64.27;37.60;;;-4.10;51.00;;;;;;5113557;28;20385;-73
2024/01/11 04:09:05;;;;;;;66.70;38.50;;;-4.00;50.50;;;;;;5112366;28;20866;-73
2024/01/11 04:11:31;;;;;;;62.35;37.35;;;-3.60;48.40;;;;;;5111891;28;20424;-72
2024/01/11 04:13:56;;;;;;;66.77;37.63;;;-3.60;47.30;;;;;;5112490;28;20493;-72
2024/01/11 04:16:22;;;;;;;66.37;38.00;;;-3.60;47.50;;;;;;5112284;28;20396;-72
2024/01/11 04:18:47;;;;;;;66.80;38.08;;;-3.60;47.30;;;;;;5112877;28;20377;-72
2024/01/11 04:21:24;;;;;;;72.97;40.70;;;-4.00;48.10;;;;;;5112187;28;20785;-72
2024/01/11 04:23:50;;;;;;;68.43;39.07;;;-3.90;49.10;;;;;;5094302;28;20467;-74
2024/01/11 04:26:16;;;;;;;67.32;39.83;;;-4.00;48.70;;;;;;5112571;28;20459;-73
2024/01/11 04:28:42;;;;;;;70.95;39.95;;;-4.10;50.40;;;;;;5113314;28;20474;-73
2024/01/11 04:31:10;;;;;;;75.30;41.38;;;-4.20;50.20;;;;;;5113664;28;20376;-73
2024/01/11 04:33:39;;;;;;;67.50;39.38;;;-4.10;51.40;;;;;;5112604;28;20384;-73
2024/01/11 04:36:05;;;;;;;67.25;38.45;;;-3.90;49.90;;;;;;5094617;28;20412;-74
2024/01/11 04:38:31;;;;;;;64.70;39.40;;;-4.00;49.10;;;;;;5108184;28;20376;-73
2024/01/11 04:40:56;;;;;;;63.50;37.30;;;-3.80;49.10;;;;;;5094032;28;20423;-72
2024/01/11 04:43:22;;;;;;;65.60;38.27;;;-3.70;49.00;;;;;;5101580;28;20380;-71
2024/01/11 04:45:47;;;;;;;66.05;38.72;;;-3.70;47.90;;;;;;5093318;28;20394;-72
2024/01/11 04:48:13;;;;;;;69.65;40.50;;;-3.70;47.90;;;;;;5104885;28;20373;-70
2024/01/11 04:50:39;;;;;;;66.83;38.13;;;-3.70;48.00;;;;;;5111435;28;20376;-72
2024/01/11 04:53:04;;;;;;;65.20;38.70;;;-3.70;47.70;;;;;;5092784;28;20811;-72
2024/01/11 04:55:30;;;;;;;68.03;39.60;;;-3.60;47.30;;;;;;5092059;28;20406;-72
2024/01/11 04:57:55;;;;;;;71.03;39.37;;;-3.60;47.20;;;;;;5092086;28;20912;-71
2024/01/11 05:00:21;;;;;;;68.85;39.90;;;-3.60;47.20;;;;;;5091043;28;20386;-71
2024/01/11 05:02:46;;;;;;;69.13;40.35;;;-3.60;47.20;;;;;;5091932;28;20382;-73
2024/01/11 05:05:12;;;;;;;64.00;38.73;;;-3.70;47.70;;;;;;5091135;28;20389;-73
2024/01/11 05:07:38;;;;;;;68.47;39.35;;;-3.80;47.70;;;;;;5090723;28;20435;-71
2024/01/11 05:10:04;;;;;;;68.00;40.77;;;-3.90;48.50;;;;;;5091237;28;20382;-72
2024/01/11 05:12:29;;;;;;;67.65;39.60;;;-4.10;49.30;;;;;;5090705;28;20390;-72
2024/01/11 05:14:55;;;;;;;71.40;41.93;;;-3.90;49.40;;;;;;5091657;28;20385;-72
2024/01/11 05:17:20;;;;;;;71.20;40.80;;;-3.90;49.20;;;;;;5088791;28;20996;-72
2024/01/11 05:19:46;;;;;;;72.53;41.38;;;-3.80;48.40;;;;;;5090716;28;20533;-71
2024/01/11 05:22:11;;;;;;;67.53;41.40;;;-3.80;47.50;;;;;;5090440;28;20496;-71
2024/01/11 05:24:37;;;;;;;71.53;40.30;;;-4.00;48.00;;;;;;5091042;28;20860;-73
2024/01/11 05:27:02;;;;;;;72.07;42.13;;;-4.20;49.40;;;;;;5090837;28;20886;-73
2024/01/11 05:29:28;;;;;;;75.50;43.17;;;-4.30;51.30;;;;;;5089436;28;20470;-72
2024/01/11 05:31:53;;;;;;;71.43;41.20;;;-4.10;50.80;;;;;;5090316;28;20389;-71
2024/01/11 05:34:19;;;;;;;78.65;42.92;;;-4.20;49.80;;;;;;5089387;28;20472;-72
2024/01/11 05:36:45;;;;;;;78.13;43.37;;;-4.40;50.80;;;;;;5090693;28;20536;-73
2024/01/11 05:39:10;;;;;;;69.60;40.90;;;-4.50;51.70;;;;;;5090493;28;20405;-71
2024/01/11 05:41:36;;;;;;;72.97;40.90;;;-4.30;52.20;;;;;;5090659;28;20412;-72
2024/01/11 05:44:01;;;;;;;70.73;40.80;;;-4.00;49.40;;;;;;5090589;28;20430;-71
2024/01/11 05:46:27;;;;;;;72.40;42.10;;;-4.10;48.30;;;;;;5090818;28;20412;-72
2024/01/11 05:48:52;;;;;;;72.40;41.30;;;-4.00;49.00;;;;;;5090515;28;20397;-72
2024/01/11 05:51:18;;;;;;;75.72;42.45;;;-3.90;48.50;;;;;;5090005;28;20389;-72
2024/01/11 05:53:43;;;;;;;69.90;41.27;;;-3.70;47.90;;;;;;5090443;28;20741;-71
2024/01/11 05:56:10;;;;;;;71.37;41.47;;;-3.60;47.20;;;;;;5089014;28;20467;-73
2024/01/11 05:58:37;;;;;;;72.47;41.50;;;-3.50;46.60;;;;;;5090114;28;20374;-71
2024/01/11 06:01:03;;;;;;;67.63;39.50;;;-3.50;45.90;;;;;;5090457;28;20374;-72
2024/01/11 06:03:29;;;;;;;71.78;40.60;;;-3.50;45.40;;;;;;5089669;28;20462;-70
2024/01/11 06:05:55;;;;;;;74.00;41.37;;;-3.60;45.60;;;;;;5090972;28;20393;-72
2024/01/11 06:08:21;;;;;;;76.80;43.35;;;-3.70;45.90;;;;;;5090940;28;20675;-70
2024/01/11 06:10:46;;;;;;;73.63;41.93;;;-3.80;46.00;;;;;;5089379;28;20389;-71
2024/01/11 06:13:12;;;;;;;71.30;41.13;;;-3.80;46.40;;;;;;5090865;28;20855;-71
2024/01/11 06:15:37;;;;;;;75.90;42.27;;;-3.80;46.60;;;;;;5090639;28;20407;-75
2024/01/11 06:18:04;;;;;;;75.93;41.50;;;-3.90;47.20;;;;;;5091413;28;20388;-71
2024/01/11 06:20:30;;;;;;;75.25;42.30;;;-3.90;47.20;;;;;;5094250;28;20414;-73
2024/01/11 06:22:56;;;;;;;71.63;41.40;;;-3.80;46.90;;;;;;5094480;28;20417;-75
2024/01/11 06:25:21;;;;;;;74.10;40.75;;;-3.90;47.30;;;;;;5094091;28;20884;-73
2024/01/11 06:27:47;;;;;;;72.10;41.83;;;-3.90;47.20;;;;;;5094586;28;20424;-74
2024/01/11 06:30:13;;;;;;;74.45;43.00;;;-4.10;48.30;;;;;;5094319;28;20386;-73
2024/01/11 06:32:38;;;;;;;73.20;42.25;;;-4.10;48.90;;;;;;5090212;28;20382;-71
2024/01/11 06:35:05;;;;;;;75.20;42.23;;;-4.20;49.20;;;;;;5095777;28;20796;-74
2024/01/11 06:37:30;;;;;;;78.65;42.70;;;-4.20;49.80;;;;;;5098402;28;20534;-73
2024/01/11 06:39:56;;;;;;;72.00;43.50;;;-4.10;48.80;;;;;;5096186;28;20378;-73
2024/01/11 06:42:22;;;;;;;73.53;42.53;;;-4.20;48.20;;;;;;5098030;28;20457;-74
2024/01/11 06:44:48;;;;;;;74.28;42.58;;;-4.00;48.60;;;;;;5098668;28;20382;-74
2024/01/11 06:47:14;;;;;;;73.00;41.53;;;-4.00;47.20;;;;;;5101232;28;20377;-74
2024/01/11 06:49:40;;;;;;;75.18;43.28;;;-4.20;47.60;;;;;;5096429;28;20469;-72
2024/01/11 06:52:06;;;;;;;74.03;42.88;;;-4.40;49.50;;;;;;5093945;28;20748;-73
2024/01/11 06:54:32;;;;;;;75.88;42.58;;;-4.10;49.00;;;;;;5094313;28;20393;-76
2024/01/11 06:56:57;;;;;;;74.38;42.78;;;-4.00;47.10;;;;;;5094018;28;20572;-73
2024/01/11 06:59:23;;;;;;;76.40;43.42;;;-4.00;46.30;;;;;;5094193;28;20386;-72
2024/01/11 07:01:49;;;;;;;78.07;44.90;;;-4.00;46.40;;;;;;5098389;28;20761;-73
2024/01/11 07:04:15;;;;;;;73.95;42.25;;;-4.00;46.30;;;;;;5095793;28;20489;-74
2024/01/11 07:06:40;;;;;;;80.93;44.35;;;-4.10;47.00;;;;;;5094092;28;20443;-72
2024/01/11 07:09:06;;;;;;;77.55;45.28;;;-4.20;47.60;;;;;;5091896;28;20880;-71
2024/01/11 07:11:32;;;;;;;77.70;43.77;;;-4.10;47.40;;;;;;5093449;28;20480;-73
2024/01/11 07:13:58;;;;;;;79.22;43.95;;;-4.10;47.60;;;;;;5094041;28;20405;-72
2024/01/11 07:16:23;;;;;;;78.45;43.90;;;-4.10;47.90;;;;;;5093053;28;20507;-73
2024/01/11 07:18:49;;;;;;;78.32;44.35;;;-4.10;47.40;;;;;;5095046;28;20489;-74
2024/01/11 07:21:31;;;;;;;72.65;42.70;;;-4.10;47.10;;;;;;5097871;28;20382;-75
2024/01/11 07:23:59;;;;;;;74.35;44.53;;;-4.30;48.60;;;;;;5097438;28;20378;-73
2024/01/11 07:26:25;;;;;;;82.57;44.58;;;-4.40;48.90;;;;;;5092789;28;20401;-72
2024/01/11 07:28:51;;;;;;;78.13;43.50;;;-4.30;48.10;;;;;;5092555;28;20385;-72
2024/01/11 07:31:16;;;;;;;75.18;42.45;;;-4.20;48.10;;;;;;5095989;28;20389;-72
2024/01/11 07:33:43;;;;;;;79.40;43.83;;;-4.30;48.50;;;;;;5096230;28;20699;-73
2024/01/11 07:36:09;;;;;;;85.88;47.00;;;-4.30;48.80;;;;;;5094798;28;20425;-73
2024/01/11 07:38:34;;;;;;;83.93;45.67;;;-4.30;49.20;;;;;;5094127;28;21096;-72
2024/01/11 07:41:00;;;;;;;75.07;44.20;;;-4.20;50.90;;;;;;5094930;28;20378;-72
2024/01/11 07:43:28;;;;;;;77.55;42.78;;;-4.00;48.10;;;;;;5093399;28;20370;-71
2024/01/11 07:45:56;;;;;;;79.13;44.35;;;-4.00;47.40;;;;;;5090035;28;20386;-71
2024/01/11 07:48:22;;;;;;;78.32;44.38;;;-4.00;46.80;;;;;;5091617;28;20393;-72
2024/01/11 07:50:48;;;;;;;78.20;44.05;;;-4.10;46.80;;;;;;5093375;28;20386;-72
2024/01/11 07:53:14;;;;;;;79.90;44.38;;;-4.20;47.80;;;;;;5091707;28;20791;-71
2024/01/11 07:55:40;;;;;;;82.35;45.13;;;-4.10;47.60;;;;;;5090950;28;20857;-71
2024/01/11 07:58:06;;;;;;;78.28;44.42;;;-4.10;48.10;;;;;;5092117;28;20374;-72
2024/01/11 08:00:32;;;;;;;78.47;44.63;;;-4.10;47.50;;;;;;5093189;28;20856;-73
2024/01/11 08:02:57;;;;;;;70.00;42.67;;;-3.90;46.80;;;;;;5092654;28;20466;-73
2024/01/11 08:05:23;;;;;;;75.30;43.43;;;-3.90;46.30;;;;;;5093600;28;20764;-73
2024/01/11 08:07:49;;;;;;;87.05;49.78;;;-3.80;46.00;;;;;;5092580;28;20382;-71
2024/01/11 08:10:15;;;;;;;89.32;49.65;;;-3.90;46.10;;;;;;5092326;28;20385;-72
2024/01/11 08:12:40;;;;;;;86.63;49.15;;;-4.10;46.70;;;;;;5091597;28;20382;-72
2024/01/11 08:15:06;;;;;;;76.37;44.93;;;-3.90;47.10;;;;;;5092023;28;20412;-72
2024/01/11 08:17:32;;;;;;;84.18;47.10;;;-4.00;47.40;;;;;;5092478;28;20737;-73
2024/01/11 08:19:57;;;;;;;77.43;45.37;;;-4.10;48.00;;;;;;5093046;28;20413;-70
2024/01/11 08:22:23;;;;;;;73.20;43.60;;;-4.00;48.10;;;;;;5102215;22;20976;-75
2024/01/11 08:24:49;;;;;;;79.07;46.08;;;-3.80;47.50;;;;;;5094574;28;20937;-76
2024/01/11 08:27:17;;;;;;;75.03;45.05;;;-3.80;46.80;;;;;;5093415;28;20400;-75
2024/01/11 08:29:43;;;;;;;73.40;43.70;;;-3.90;48.10;;;;;;5092393;28;20378;-75
2024/01/11 08:32:08;;;;;;;74.55;43.13;;;-3.50;46.30;;;;;;5099467;28;20376;-76
2024/01/11 08:34:34;;;;;;;74.90;43.37;;;-3.20;44.40;;;;;;5112910;28;20753;-74
2024/01/11 08:37:00;;;;;;;80.13;44.05;;;-3.20;43.10;;;;;;5095246;28;20869;-76
2024/01/11 08:39:25;;;;;;;87.37;48.43;;;-3.20;43.40;;;;;;5112233;28;20894;-76
2024/01/11 08:41:52;;;;;;;89.17;50.30;;;-3.30;44.30;;;;;;5093771;28;20380;-77
2024/01/11 08:44:18;;;;;;;80.35;46.72;;;-3.30;44.20;;;;;;5094231;28;20880;-75
2024/01/11 08:46:43;;;;;;;78.40;43.30;;;-3.20;44.00;;;;;;5112600;28;20376;-77
2024/01/11 08:49:09;;;;;;;73.30;42.60;;;-3.00;43.30;;;;;;5112065;28;20398;-75
2024/01/11 08:51:35;;;;;;;77.73;43.83;;;-2.80;42.30;;;;;;5112442;28;20772;-76
2024/01/11 08:54:01;;;;;;;73.47;42.28;;;-2.80;41.30;;;;;;5112250;28;20492;-75
2024/01/11 08:56:27;;;;;;;76.17;43.53;;;-2.70;41.10;;;;;;5113274;28;20480;-75
2024/01/11 08:58:53;;;;;;;72.82;43.03;;;-2.60;40.50;;;;;;5112530;28;20381;-76
2024/01/11 09:01:19;;;;;;;78.27;44.93;;;-2.70;40.60;;;;;;5093868;28;20405;-76
2024/01/11 09:03:44;;;;;;;80.18;44.60;;;-2.70;41.50;;;;;;5114046;28;20383;-75
2024/01/11 09:06:11;;;;;;;79.40;43.80;;;-2.70;41.70;;;;;;5113559;28;20991;-75
2024/01/11 09:08:36;;;;;;;72.65;43.10;;;-2.70;41.80;;;;;;5112940;28;20388;-75
2024/01/11 09:11:03;;;;;;;72.80;43.53;;;-2.50;41.90;;;;;;5111907;28;20380;-77
2024/01/11 09:13:28;;;;;;;73.65;43.10;;;-2.40;41.70;;;;;;5093965;28;20384;-75
2024/01/11 09:15:54;;;;;;;90.72;48.00;;;-2.30;41.10;;;;;;5112955;28;20384;-76
2024/01/11 09:18:20;;;;;;;73.05;42.67;;;-2.30;40.90;;;;;;5112198;28;20445;-74
2024/01/11 09:20:47;;;;;;;81.97;44.53;;;-2.30;40.60;;;;;;5112637;28;20380;-76
2024/01/11 09:23:12;;;;;;;77.00;44.42;;;-2.30;40.40;;;;;;5112062;28;20882;-75
2024/01/11 09:25:38;;;;;;;70.68;42.85;;;-2.30;40.70;;;;;;5112253;28;20623;-75
2024/01/11 09:28:04;;;;;;;78.20;44.20;;;-2.20;40.80;;;;;;5111656;28;20479;-75
2024/01/11 09:30:29;;;;;;;76.22;43.55;;;-2.10;40.30;;;;;;5093503;28;20384;-74
2024/01/11 09:32:55;;;;;;;70.25;42.72;;;-2.10;39.70;;;;;;5093197;28;20467;-74
2024/01/11 09:35:23;;;;;;;76.73;44.63;;;-1.80;39.30;;;;;;5111341;28;20408;-74
2024/01/11 09:37:49;;;;;;;76.27;43.37;;;-1.80;38.40;;;;;;5110935;28;20399;-76
2024/01/11 09:40:14;;;;;;;76.28;43.33;;;-1.80;38.40;;;;;;5110818;28;20876;-75
2024/01/11 09:42:40;;;;;;;78.10;43.70;;;-1.80;38.60;;;;;;5110818;28;20383;-75
2024/01/11 09:45:16;;;;;;;79.57;42.93;;;-1.80;38.70;;;;;;5092841;28;20511;-76
2024/01/11 09:47:45;;;;;;;75.25;44.00;;;-1.70;38.70;;;;;;5112134;28;20399;-75
2024/01/11 09:50:17;;;;;;;73.15;43.00;;;-1.70;38.40;;;;;;5111721;28;20912;-75
2024/01/11 09:52:47;;;;;;;73.90;43.58;;;-1.70;38.70;;;;;;5111506;28;20380;-76
2024/01/11 09:55:13;;;;;;;77.80;44.83;;;-1.70;38.40;;;;;;5111609;28;20388;-75
2024/01/11 09:57:44;;;;;;;73.03;43.20;;;-1.60;38.60;;;;;;5093708;28;20392;-75
2024/01/11 10:00:12;;;;;;;73.60;43.25;;;-1.50;38.00;;;;;;5112457;28;20380;-76
2024/01/11 10:02:38;;;;;;;76.28;43.72;;;-1.50;38.00;;;;;;5111427;28;20399;-75
2024/01/11 10:05:05;;;;;;;78.47;43.90;;;-1.40;37.90;;;;;;5131116;28;20829;-75
2024/01/11 10:07:33;;;;;;;79.75;43.72;;;-1.30;37.90;;;;;;5131605;28;20457;-74
2024/01/11 10:10:00;;;;;;;74.13;42.38;;;-1.30;37.40;;;;;;5133726;28;20384;-74
2024/01/11 10:12:27;;;;;;;77.10;43.25;;;-1.30;37.60;;;;;;5135253;28;20387;-74
2024/01/11 10:14:53;;;;;;;74.38;42.60;;;-1.20;37.20;;;;;;5133172;28;20381;-75
2024/01/11 10:17:19;;;;;;;71.50;42.55;;;-1.10;36.90;;;;;;5134600;28;20420;-74
2024/01/11 10:19:45;;;;;;;74.55;42.92;;;-1.10;36.60;;;;;;5115457;28;20364;-75
2024/01/11 10:22:16;;;;;;;68.85;41.95;;;-1.10;36.50;;;;;;5133317;28;20392;-75
2024/01/11 10:24:42;;;;;;;66.75;41.20;;;-1.10;36.40;;;;;;5132102;28;20411;-75
2024/01/11 10:27:11;;;;;;;74.32;44.08;;;-1.10;36.40;;;;;;5133834;28;20368;-74
2024/01/11 10:29:37;;;;;;;70.83;43.47;;;-1.00;36.50;;;;;;5133459;28;20384;-74
2024/01/11 10:32:06;;;;;;;75.15;43.03;;;-0.90;36.50;;;;;;5131849;28;20399;-74
2024/01/11 10:34:32;;;;;;;71.53;42.88;;;-0.80;36.20;;;;;;5131403;28;20395;-74
2024/01/11 10:36:57;;;;;;;70.47;42.45;;;-0.80;36.10;;;;;;5131900;28;20384;-74
2024/01/11 10:39:25;;;;;;;70.27;41.80;;;-0.80;35.90;;;;;;5133217;28;20384;-74
2024/01/11 10:41:55;;;;;;;72.80;42.30;;;-0.70;35.90;;;;;;5133672;28;20436;-74
2024/01/11 10:44:21;;;;;;;75.80;42.75;;;-0.70;35.80;;;;;;5131336;28;20387;-74
2024/01/11 10:46:49;;;;;;;76.85;42.92;;;-0.60;35.60;;;;;;5132898;28;20376;-75
2024/01/11 10:49:19;;;;;;;73.78;42.13;;;-0.40;35.10;;;;;;5132375;28;20413;-75
2024/01/11 10:52:05;;;;;;;73.83;41.50;;;-0.30;34.70;;;;;;5131257;28;20455;-73
2024/01/11 10:54:33;;;;;;;72.57;42.63;;;-0.40;34.40;;;;;;5131837;28;20399;-75
2024/01/11 10:57:00;;;;;;;71.90;40.72;;;-0.40;35.30;;;;;;5130961;28;20400;-74
2024/01/11 10:59:27;;;;;;;76.35;44.05;;;-0.40;34.80;;;;;;5131833;28;20444;-76
2024/01/11 11:01:58;;;;;;;72.00;41.80;;;-0.30;34.70;;;;;;5127639;28;20384;-76
2024/01/11 11:04:24;;;;;;;74.45;42.22;;;-0.30;34.80;;;;;;5118389;28;20403;-74
2024/01/11 11:06:57;;;;;;;73.88;43.05;;;-0.20;34.70;;;;;;5116554;28;20747;-75
2024/01/11 11:09:23;;;;;;;70.57;41.08;;;-0.10;34.70;;;;;;5116255;28;20380;-75
2024/01/11 11:11:49;;;;;;;71.57;40.15;;;0.00;33.70;;;;;;5115671;28;20930;-75
2024/01/11 11:14:15;;;;;;;72.32;41.60;;;0.10;33.60;;;;;;5114950;28;20388;-76
2024/01/11 11:16:42;;;;;;;73.60;40.33;;;0.20;33.50;;;;;;5114749;28;20483;-76
2024/01/11 11:19:08;;;;;;;70.90;40.78;;;0.30;33.70;;;;;;5114247;28;20770;-76
2024/01/11 11:21:42;;;;;;;69.77;40.40;;;0.40;33.00;;;;;;5114200;28;20380;-76
2024/01/11 11:24:08;;;;;;;68.57;40.60;;;0.50;33.10;;;;;;5116043;28;20418;-74
2024/01/11 11:26:35;;;;;;;73.55;42.45;;;0.60;32.30;;;;;;5116617;28;20388;-74
2024/01/11 11:29:00;;;;;;;76.37;41.03;;;0.60;32.60;;;;;;5116223;28;20388;-78
2024/01/11 11:31:36;;;;;;;71.25;40.67;;;0.80;32.50;;;;;;5096983;28;20418;-75
2024/01/11 11:34:03;;;;;;;71.20;41.25;;;0.80;32.00;;;;;;5116090;28;20438;-75
2024/01/11 11:36:30;;;;;;;71.93;39.95;;;0.90;31.80;;;;;;5115147;28;20901;-74
2024/01/11 11:39:00;;;;;;;68.88;38.83;;;1.00;31.80;;;;;;5115228;28;20461;-74
2024/01/11 11:41:26;;;;;;;66.07;37.22;;;1.10;30.00;;;;;;5117238;28;20376;-75
2024/01/11 11:43:52;;;;;;;58.50;35.88;;;1.10;30.20;;;;;;5122768;28;20461;-74
2024/01/11 11:46:19;;;;;;;58.83;34.30;;;1.20;29.10;;;;;;5114801;28;20380;-74
2024/01/11 11:48:52;;;;;;;57.63;34.20;;;1.30;28.50;;;;;;5114567;28;20387;-76
2024/01/11 11:51:20;;;;;;;54.63;32.95;;;1.30;28.40;;;;;;5098735;28;20384;-75
2024/01/11 11:53:47;;;;;;;55.45;31.75;;;1.40;27.10;;;;;;5118788;28;20411;-76
2024/01/11 11:56:16;;;;;;;53.28;29.70;;;1.50;28.30;;;;;;5114239;28;20482;-76
2024/01/11 11:58:42;;;;;;;54.38;30.77;;;1.70;27.00;;;;;;5113506;28;20391;-76
2024/01/11 12:01:08;;;;;;;53.45;30.15;;;1.80;26.30;;;;;;5113193;28;20387;-75
2024/01/11 12:03:40;;;;;;;52.13;29.08;;;1.80;25.50;;;;;;5113397;28;20380;-74
2024/01/11 12:06:10;;;;;;;52.60;29.33;;;1.80;24.90;;;;;;5112985;28;20434;-74
2024/01/11 12:08:36;;;;;;;52.58;28.60;;;1.80;24.90;;;;;;5094763;28;20453;-75
2024/01/11 12:11:03;;;;;;;56.58;29.73;;;1.90;24.20;;;;;;5113808;28;20425;-75
2024/01/11 12:13:30;;;;;;;52.35;29.98;;;2.00;24.40;;;;;;5095513;28;20441;-75
2024/01/11 12:15:56;;;;;;;54.20;30.92;;;2.00;23.90;;;;;;5114464;28;20434;-77
2024/01/11 12:18:22;;;;;;;54.17;29.85;;;2.00;23.80;;;;;;5115065;28;20392;-76
2024/01/11 12:20:47;;;;;;;54.42;30.13;;;2.00;23.70;;;;;;5114473;28;20373;-76
2024/01/11 12:23:14;;;;;;;61.10;31.10;;;2.00;23.70;;;;;;5114312;28;20416;-74